.
WxDataArchive / Data Records for 2013-05-14
2013-05-13 May 2013 2013-05-15

Data Records for Tuesday, 14 May 2013

Time	Temp	Chill	HIndex	Humid	Dewpt	 Wind 	HiWind	WindDir	Rain 	Barom 
-----	----	-----	------	-----	-----	------	------	-------	-----	----- 
00:00	44.9	44.9	44.9	60	31.9	0	0	---	0.00	30.100 
00:05	44.9	44.9	44.9	61	32.3	0	0	---	0.00	30.100 
00:10	44.8	44.8	44.8	60	31.8	0	0	---	0.00	30.100 
00:15	44.8	44.8	44.8	60	31.8	0	0	---	0.00	30.100 
00:20	44.9	44.9	44.9	61	32.3	0	0	---	0.00	30.100 
00:25	44.9	44.9	44.9	62	32.7	0	0	---	0.00	30.100 
00:30	44.9	44.9	44.9	63	33.1	0	0	---	0.00	30.091 
00:35	44.9	44.9	44.9	63	33.1	0	0	---	0.00	30.091 
00:40	44.9	44.9	44.9	63	33.1	0	0	---	0.00	30.091 
00:45	44.8	44.8	44.8	63	33.0	0	0	---	0.00	30.087 
00:50	44.8	44.8	44.8	62	32.6	0	0	---	0.00	30.087 
00:55	44.8	44.8	44.8	61	32.2	0	0	---	0.00	30.087 
01:00	44.6	44.6	44.6	58	30.7	0	0	---	0.00	30.094 
01:05	44.8	44.8	44.8	58	30.9	0	0	---	0.00	30.094 
01:10	44.9	44.9	44.9	55	29.7	0	0	---	0.00	30.094 
01:15	45.2	45.2	45.2	52	28.6	0	0	---	0.00	30.086 
01:20	45.5	45.5	45.5	51	28.4	0	1	248	0.00	30.086 
01:25	45.8	45.8	45.8	51	28.7	0	0	---	0.00	30.086 
01:30	46.1	46.1	46.1	51	29.0	0	1	248	0.00	30.079 
01:35	46.5	46.5	46.5	49	28.4	0	1	248	0.00	30.079 
01:40	46.7	46.7	46.7	51	29.5	0	0	---	0.00	30.079 
01:45	46.8	46.8	46.8	51	29.6	0	0	---	0.00	30.070 
01:50	47.0	47.0	47.0	51	29.8	0	0	---	0.00	30.070 
01:55	47.1	47.1	47.1	50	29.4	0	0	---	0.00	30.070 
02:00	47.3	47.3	47.3	49	29.1	0	1	248	0.00	30.070 
02:05	47.6	47.6	47.6	48	28.9	0	1	248	0.00	30.070 
02:10	47.9	47.9	47.9	47	28.7	0	1	248	0.00	30.070 
02:15	48.0	48.0	48.0	47	28.7	0	1	248	0.00	30.066 
02:20	48.3	48.3	48.3	47	29.0	0	1	248	0.00	30.066 
02:25	48.5	48.5	48.5	48	29.7	0	1	248	0.00	30.066 
02:30	48.5	48.5	48.5	47	29.2	0	1	248	0.00	30.064 
02:35	48.6	48.6	48.6	47	29.3	0	0	---	0.00	30.064 
02:40	48.6	48.6	48.6	47	29.3	0	1	248	0.00	30.064 
02:45	48.6	48.6	48.6	48	29.8	0	1	248	0.00	30.057 
02:50	48.6	48.6	48.6	48	29.8	0	1	248	0.00	30.057 
02:55	48.6	48.6	48.6	49	30.3	0	1	248	0.00	30.057 
03:00	48.6	48.6	48.6	48	29.8	0	0	---	0.00	30.049 
03:05	48.6	48.6	48.6	49	30.3	0	0	---	0.00	30.049 
03:10	48.5	48.5	48.5	50	30.7	0	0	---	0.00	30.049 
03:15	48.5	48.5	48.5	50	30.7	0	0	---	0.00	30.049 
03:20	48.5	48.5	48.5	50	30.7	0	1	248	0.00	30.049 
03:25	48.5	48.5	48.5	51	31.2	0	1	248	0.00	30.049 
03:30	48.5	48.5	48.5	50	30.7	0	1	248	0.00	30.034 
03:35	48.5	48.5	48.5	50	30.7	0	1	248	0.00	30.034 
03:40	48.5	48.5	48.5	50	30.7	0	1	248	0.00	30.034 
03:45	48.6	48.6	48.6	51	31.3	0	1	248	0.00	30.021 
03:50	48.6	48.6	48.6	52	31.8	0	1	248	0.00	30.021 
03:55	48.6	48.6	48.6	52	31.8	0	1	248	0.00	30.021 
04:00	48.6	48.6	48.6	52	31.8	0	1	248	0.00	30.015 
04:05	48.6	48.6	48.6	51	31.3	0	1	248	0.00	30.015 
04:10	48.6	48.6	48.6	51	31.3	0	2	248	0.00	30.015 
04:15	48.8	48.8	48.8	50	31.0	0	1	248	0.00	30.009 
04:20	48.9	48.9	48.9	50	31.1	0	1	248	0.00	30.009 
04:25	49.1	49.1	49.1	50	31.3	0	1	248	0.00	30.009 
04:30	49.2	49.2	49.2	50	31.4	0	0	---	0.00	30.006 
04:35	49.4	49.4	49.4	49	31.0	0	1	248	0.00	30.006 
04:40	49.5	49.5	49.5	50	31.6	0	1	248	0.00	30.006 
04:45	49.6	49.6	49.6	51	32.2	0	0	---	0.00	30.002 
04:50	49.6	49.6	49.6	50	31.7	0	1	248	0.00	30.002 
04:55	49.8	49.8	49.8	51	32.4	0	0	---	0.00	30.002 
05:00	49.9	49.9	49.9	50	32.0	0	1	248	0.00	30.003 
05:05	50.1	50.1	50.1	50	32.2	0	0	---	0.00	30.003 
05:10	50.2	50.2	50.2	50	32.3	0	0	---	0.00	30.003 
05:15	50.4	50.4	50.4	50	32.5	0	0	---	0.00	30.004 
05:20	50.4	50.4	50.4	52	33.4	0	0	---	0.00	30.004 
05:25	50.4	50.4	50.4	52	33.4	0	0	---	0.00	30.004 
05:30	50.4	50.4	50.4	52	33.4	0	0	---	0.00	30.011 
05:35	50.4	50.4	50.4	53	33.9	0	1	248	0.00	30.011 
05:40	50.5	50.5	50.5	54	34.5	0	0	---	0.00	30.011 
05:45	50.5	50.5	50.5	56	35.4	0	1	248	0.00	29.999 
05:50	50.5	50.5	50.5	57	35.8	0	1	248	0.00	29.999 
05:55	50.4	50.4	50.4	56	35.3	0	0	---	0.00	29.999 
06:00	50.4	50.4	50.4	57	35.7	0	1	248	0.00	30.001 
06:05	50.4	50.4	50.4	57	35.7	0	0	---	0.00	30.001 
06:10	50.4	50.4	50.4	57	35.7	0	0	---	0.00	30.001 
06:15	50.4	50.4	50.4	56	35.3	0	0	---	0.00	30.001 
06:20	50.5	50.5	50.5	55	34.9	0	0	---	0.00	30.001 
06:25	50.5	50.5	50.5	55	34.9	0	1	248	0.00	30.001 
06:30	50.8	50.8	50.8	54	34.8	0	1	248	0.00	29.999 
06:35	51.0	51.0	51.0	54	34.9	0	0	---	0.00	29.999 
06:40	51.3	51.3	51.3	54	35.2	0	1	248	0.00	29.999 
06:45	51.4	51.4	51.4	54	35.3	0	1	248	0.00	30.000 
06:50	51.4	51.4	51.4	55	35.8	0	2	248	0.00	30.000 
06:55	51.6	51.6	51.6	54	35.5	0	1	248	0.00	30.000 
07:00	51.6	51.6	51.6	54	35.5	0	0	---	0.00	29.997 
07:05	51.7	51.7	51.7	54	35.6	0	2	248	0.00	29.997 
07:10	51.9	51.9	51.9	55	36.2	0	1	248	0.00	29.997 
07:15	52.0	52.0	52.0	57	37.2	0	1	248	0.00	29.995 
07:20	52.0	52.0	52.0	57	37.2	0	1	248	0.00	29.995 
07:25	52.0	52.0	52.0	57	37.2	0	1	248	0.00	29.995 
07:30	52.0	52.0	52.0	57	37.2	0	1	248	0.00	29.996 
07:35	52.2	52.2	52.2	54	36.1	0	2	248	0.00	29.996 
07:40	52.3	52.3	52.3	56	37.1	0	2	248	0.00	29.996 
07:45	52.6	52.6	52.6	55	36.9	0	2	248	0.00	29.989 
07:50	52.9	52.9	52.9	55	37.2	0	2	248	0.00	29.989 
07:55	53.3	53.3	53.3	54	37.1	0	1	248	0.00	29.989 
08:00	53.6	53.6	53.6	55	37.8	0	1	248	0.00	29.994 
08:05	53.9	53.9	53.9	52	36.7	1	5	248	0.00	29.994 
08:10	54.2	54.2	54.2	54	37.9	0	2	68	0.00	29.994 
08:15	54.5	54.5	54.5	54	38.2	0	4	68	0.00	29.988 
08:20	54.8	54.8	54.8	52	37.5	1	5	248	0.00	29.988 
08:25	55.0	55.0	55.0	53	38.2	0	1	248	0.00	29.988 
08:30	55.3	55.3	55.3	52	38.0	0	3	248	0.00	29.985 
08:35	56.0	56.0	56.0	49	37.1	1	3	68	0.00	29.985 
08:40	57.0	57.0	57.0	49	38.0	0	2	90	0.00	29.985 
08:45	57.8	57.8	57.8	46	37.2	1	3	90	0.00	29.975 
08:50	58.6	58.6	58.6	45	37.3	1	5	270	0.00	29.975 
08:55	59.2	59.2	59.2	45	37.9	1	4	248	0.00	29.975 
09:00	59.5	59.5	59.5	44	37.6	1	7	0	0.00	29.963 
09:05	59.9	59.9	59.9	43	37.3	2	5	90	0.00	29.963 
09:10	60.4	60.4	60.4	43	37.8	1	4	68	0.00	29.963 
09:15	60.7	60.7	60.7	41	36.9	1	4	90	0.00	29.951 
09:20	61.2	61.2	61.2	41	37.3	1	4	45	0.00	29.951 
09:25	61.5	61.5	61.5	40	37.0	2	7	68	0.00	29.951 
09:30	61.8	61.8	61.8	38	35.9	2	10	68	0.00	29.940 
09:35	61.5	61.5	61.5	38	35.7	1	4	248	0.00	29.940 
09:40	61.6	61.6	61.6	38	35.7	1	4	90	0.00	29.940 
09:45	61.8	61.8	61.8	38	35.9	2	8	248	0.00	29.936 
09:50	62.0	62.0	62.0	37	35.4	2	9	248	0.00	29.936 
09:55	62.0	62.0	62.0	39	36.8	2	6	248	0.00	29.936 
10:00	62.1	62.1	62.1	40	37.5	2	10	248	0.00	29.921 
10:05	62.6	62.6	62.6	41	38.6	1	5	270	0.00	29.921 
10:10	63.2	63.2	63.2	39	37.8	2	9	248	0.00	29.921 
10:15	64.0	64.0	64.0	39	38.5	1	5	90	0.00	29.913 
10:20	64.0	64.0	64.0	37	37.2	3	9	90	0.00	29.913 
10:25	64.2	64.2	64.2	38	38.1	3	9	112	0.00	29.913 
10:30	65.2	65.2	65.2	37	38.3	2	7	90	0.00	29.901 
10:35	65.5	65.5	65.5	39	39.9	2	9	90	0.00	29.901 
10:40	65.3	65.3	65.3	39	39.7	1	10	112	0.00	29.901 
10:45	65.2	65.2	65.2	39	39.6	2	5	270	0.00	29.892 
10:50	65.0	65.0	65.0	39	39.4	1	4	270	0.00	29.892 
10:55	65.5	65.5	65.5	40	40.5	2	6	270	0.00	29.892 
11:00	66.6	66.6	66.6	41	42.2	1	6	248	0.00	29.879 
11:05	66.8	66.8	66.8	39	41.0	2	7	315	0.00	29.879 
11:10	67.4	67.4	67.4	39	41.6	2	11	270	0.00	29.879 
11:15	67.8	67.8	67.8	39	41.9	2	7	270	0.00	29.870 
11:20	67.9	67.9	67.9	40	42.7	1	4	248	0.00	29.870 
11:25	68.3	68.3	68.3	39	42.4	2	4	270	0.00	29.870 
11:30	67.9	67.9	67.9	39	42.0	2	5	270	0.00	29.869 
11:35	67.9	67.9	67.9	39	42.0	2	10	270	0.00	29.869 
11:40	68.4	68.4	68.4	40	43.1	2	6	45	0.00	29.869 
11:45	68.8	68.8	68.8	41	44.1	2	6	270	0.00	29.854 
11:50	69.1	69.1	69.1	39	43.1	2	5	0	0.00	29.854 
11:55	69.6	69.6	69.6	41	44.8	2	10	248	0.00	29.854 
12:00	69.9	69.9	69.9	40	44.5	2	6	270	0.00	29.850 
12:05	69.9	69.9	69.9	43	46.4	2	10	270	0.00	29.850 
12:10	70.6	70.6	70.6	41	45.7	2	7	270	0.00	29.850 
12:15	70.8	70.8	70.8	38	43.9	2	6	270	0.00	29.836 
12:20	71.3	71.3	71.3	39	45.1	2	4	68	0.00	29.836 
12:25	71.6	71.6	71.6	40	46.0	2	9	248	0.00	29.836 
12:30	72.0	72.0	72.0	39	45.7	2	9	270	0.00	29.834 
12:35	72.1	72.1	72.1	38	45.1	3	9	248	0.00	29.834 
12:40	72.1	72.1	72.1	38	45.1	3	6	248	0.00	29.834 
12:45	72.5	72.5	72.5	39	46.1	2	6	248	0.00	29.821 
12:50	72.7	72.7	72.7	38	45.6	3	10	248	0.00	29.821 
12:55	73.0	73.0	73.0	39	46.6	2	7	270	0.00	29.821 
13:00	73.3	73.3	73.3	41	48.2	2	7	248	0.00	29.816 
13:05	73.9	73.9	73.9	39	47.4	1	6	292	0.00	29.816 
13:10	74.0	74.0	74.0	37	46.1	3	6	248	0.00	29.816 
13:15	74.2	74.2	74.2	38	46.9	2	5	270	0.00	29.809 
13:20	74.6	74.6	74.6	38	47.3	2	7	248	0.00	29.809 
13:25	75.1	75.1	77.5	39	48.4	2	5	248	0.00	29.809 
13:30	75.8	75.8	77.7	39	49.1	2	6	248	0.00	29.802 
13:35	75.8	75.8	77.6	36	46.9	2	11	270	0.00	29.802 
13:40	75.8	75.8	77.6	37	47.7	2	5	248	0.00	29.802 
13:45	76.0	76.0	77.7	38	48.5	2	7	248	0.00	29.800 
13:50	76.3	76.3	77.7	36	47.4	2	5	270	0.00	29.800 
13:55	76.8	76.8	77.9	36	47.8	2	6	270	0.00	29.800 
14:00	76.8	76.8	77.9	36	47.8	2	5	248	0.00	29.796 
14:05	77.0	77.0	78.2	40	50.8	2	5	270	0.00	29.796 
14:10	77.2	77.2	78.2	37	48.9	3	6	248	0.00	29.796 
14:15	77.4	77.4	78.2	36	48.3	2	6	248	0.00	29.788 
14:20	77.7	77.7	78.4	37	49.3	2	9	248	0.00	29.788 
14:25	77.9	77.9	78.4	36	48.8	2	5	248	0.00	29.788 
14:30	77.9	77.9	78.4	36	48.8	2	6	270	0.00	29.791 
14:35	78.1	78.1	78.5	36	48.9	2	6	270	0.00	29.791 
14:40	78.5	78.5	78.7	35	48.5	1	4	270	0.00	29.791 
14:45	78.6	78.6	78.7	35	48.6	2	10	270	0.00	29.776 
14:50	78.8	78.8	78.8	34	48.0	2	6	248	0.00	29.776 
14:55	79.0	79.0	79.0	36	49.7	1	5	270	0.00	29.776 
15:00	79.0	79.0	79.0	35	49.0	3	11	248	0.00	29.771 
15:05	79.2	79.2	79.1	35	49.2	2	7	292	0.00	29.771 
15:10	79.8	79.8	79.4	35	49.7	2	5	270	0.00	29.771 
15:15	80.1	80.1	79.7	36	50.7	1	4	248	0.00	29.762 
15:20	80.5	80.5	79.9	35	50.3	2	4	248	0.00	29.762 
15:25	80.9	80.9	80.1	35	50.7	2	4	248	0.00	29.762 
15:30	81.1	81.1	80.3	35	50.8	1	4	270	0.00	29.752 
15:35	81.4	81.4	80.5	35	51.1	1	4	248	0.00	29.752 
15:40	81.6	81.6	80.5	34	50.5	2	5	270	0.00	29.752 
15:45	81.8	81.8	80.9	36	52.2	1	3	248	0.00	29.747 
15:50	82.2	82.2	81.1	35	51.8	2	5	270	0.00	29.747 
15:55	82.2	82.2	81.1	35	51.8	2	5	270	0.00	29.747 
16:00	82.4	82.4	81.2	35	52.0	1	2	248	0.00	29.746 
16:05	82.8	82.8	81.6	35	52.3	1	5	248	0.00	29.746 
16:10	82.6	82.6	81.3	34	51.4	2	5	270	0.00	29.746 
16:15	82.6	82.6	81.4	35	52.1	2	4	270	0.00	29.744 
16:20	82.6	82.6	81.4	35	52.1	2	5	270	0.00	29.744 
16:25	82.8	82.8	81.6	35	52.3	1	3	270	0.00	29.744 
16:30	83.0	83.0	82.0	37	54.0	1	4	270	0.00	29.742 
16:35	83.2	83.2	81.9	35	52.7	2	4	225	0.00	29.742 
16:40	83.2	83.2	81.9	35	52.7	2	4	248	0.00	29.742 
16:45	83.2	83.2	82.0	36	53.4	2	4	270	0.00	29.742 
16:50	83.4	83.4	81.9	34	52.1	3	6	270	0.00	29.742 
16:55	83.0	83.0	81.7	35	52.5	3	7	270	0.00	29.742 
17:00	82.8	82.8	81.6	35	52.3	2	6	270	0.00	29.749 
17:05	83.0	83.0	81.8	36	53.3	2	5	248	0.00	29.749 
17:10	82.8	82.8	81.6	35	52.3	3	7	270	0.00	29.749 
17:15	82.8	82.8	81.7	36	53.1	3	6	270	0.00	29.753 
17:20	82.8	82.8	81.6	35	52.3	2	5	270	0.00	29.753 
17:25	83.0	83.0	82.0	37	54.0	1	4	248	0.00	29.753 
17:30	83.2	83.2	81.9	35	52.7	3	6	248	0.00	29.756 
17:35	83.2	83.2	81.9	35	52.7	3	7	270	0.00	29.756 
17:40	83.2	83.2	82.0	36	53.4	2	5	270	0.00	29.756 
17:45	83.4	83.4	82.3	37	54.4	1	4	270	0.00	29.749 
17:50	83.6	83.6	82.4	36	53.8	1	4	315	0.00	29.749 
17:55	83.8	83.8	82.5	36	54.0	1	4	292	0.00	29.749 
18:00	83.4	83.4	82.2	36	53.6	2	6	270	0.00	29.755 
18:05	83.2	83.2	82.0	36	53.4	1	3	270	0.00	29.755 
18:10	83.2	83.2	82.0	36	53.4	2	4	270	0.00	29.755 
18:15	83.2	83.2	82.1	37	54.2	2	7	270	0.00	29.756 
18:20	83.0	83.0	82.0	37	54.0	1	3	270	0.00	29.756 
18:25	82.8	82.8	81.8	37	53.8	1	3	270	0.00	29.756 
18:30	83.0	83.0	82.0	37	54.0	1	4	270	0.00	29.755 
18:35	83.2	83.2	82.3	38	54.9	1	3	270	0.00	29.755 
18:40	83.0	83.0	82.0	37	54.0	1	2	270	0.00	29.755 
18:45	83.0	83.0	82.2	39	55.5	1	3	270	0.00	29.753 
18:50	83.0	83.0	82.1	38	54.7	1	2	270	0.00	29.753 
18:55	82.8	82.8	82.0	39	55.3	0	2	270	0.00	29.753 
19:00	82.8	82.8	81.9	38	54.6	0	2	270	0.00	29.750 
19:05	82.8	82.8	81.9	38	54.6	0	3	270	0.00	29.750 
19:10	83.2	83.2	81.9	35	52.7	1	5	270	0.00	29.750 
19:15	83.4	83.4	82.1	35	52.8	1	3	270	0.00	29.743 
19:20	83.6	83.6	82.5	37	54.5	1	3	270	0.00	29.743 
19:25	83.4	83.4	82.6	39	55.8	0	1	270	0.00	29.743 
19:30	83.2	83.2	82.4	39	55.6	0	1	270	0.00	29.739 
19:35	82.8	82.8	82.0	39	55.3	0	1	270	0.00	29.739 
19:40	82.8	82.8	82.2	40	56.0	0	1	270	0.00	29.739 
19:45	82.4	82.4	81.6	38	54.2	1	2	270	0.00	29.727 
19:50	82.4	82.4	81.2	35	52.0	0	1	270	0.00	29.727 
19:55	82.0	82.0	80.6	31	48.4	1	4	270	0.00	29.727 
20:00	82.0	82.0	80.5	30	47.5	1	3	270	0.00	29.726 
20:05	81.8	81.8	80.4	31	48.2	0	1	270	0.00	29.726 
20:10	81.4	81.4	80.1	31	47.8	0	0	---	0.00	29.726 
20:15	81.1	81.1	80.0	32	48.4	0	1	270	0.00	29.709 
20:20	80.5	80.5	79.8	34	49.5	0	1	270	0.00	29.709 
20:25	79.9	79.9	79.4	34	49.0	0	1	270	0.00	29.709 
20:30	79.6	79.6	79.2	34	48.7	0	1	270	0.00	29.713 
20:35	79.4	79.4	79.3	37	50.8	0	2	270	0.00	29.713 
20:40	79.0	79.0	79.5	43	54.6	0	1	270	0.00	29.713 
20:45	78.6	78.6	79.4	46	56.1	0	0	---	0.00	29.701 
20:50	78.5	78.5	79.5	48	57.2	0	1	270	0.00	29.701 
20:55	78.1	78.1	79.2	48	56.8	0	1	270	0.00	29.701 
21:00	78.1	78.1	79.2	48	56.8	0	3	292	0.00	29.705 
21:05	78.1	78.1	79.2	48	56.8	0	1	292	0.00	29.705 
21:10	78.1	78.1	79.2	48	56.8	0	1	292	0.00	29.705 
21:15	77.9	77.9	79.1	49	57.2	0	2	292	0.00	29.722 
21:20	77.9	77.9	79.1	49	57.2	0	1	292	0.00	29.722 
21:25	77.9	77.9	79.1	49	57.2	0	0	---	0.00	29.722 
21:30	77.6	77.6	79.0	50	57.5	0	1	292	0.00	29.733 
21:35	77.2	77.2	78.7	50	57.1	0	0	---	0.00	29.733 
21:40	76.8	76.8	78.5	50	56.7	0	0	---	0.00	29.733 
21:45	76.5	76.5	78.4	52	57.5	0	0	---	0.00	29.737 
21:50	76.1	76.1	78.1	52	57.2	0	1	292	0.00	29.737 
21:55	75.8	75.8	78.0	53	57.4	0	1	292	0.00	29.737 
22:00	75.6	75.6	77.9	54	57.8	0	0	---	0.00	29.737 
22:05	75.3	75.3	77.7	54	57.5	0	1	292	0.00	29.737 
22:10	75.1	75.1	77.6	55	57.8	0	1	292	0.00	29.737 
22:15	75.1	75.1	77.6	55	57.8	0	2	292	0.00	29.735 
22:20	75.1	75.1	77.6	55	57.8	0	1	292	0.00	29.735 
22:25	74.9	74.9	74.9	56	58.1	0	2	292	0.00	29.735 
22:30	74.9	74.9	74.9	56	58.1	0	1	292	0.00	29.743 
22:35	74.9	74.9	74.9	56	58.1	0	1	292	0.00	29.743 
22:40	74.7	74.7	74.7	56	57.9	0	1	292	0.00	29.743 
22:45	74.6	74.6	74.6	57	58.3	0	0	---	0.00	29.747 
22:50	74.4	74.4	74.4	57	58.2	0	1	292	0.00	29.747 
22:55	74.2	74.2	74.2	58	58.5	0	1	292	0.00	29.747 
23:00	74.0	74.0	74.0	58	58.3	0	0	---	0.00	29.751 
23:05	73.7	73.7	73.7	58	58.0	0	1	292	0.00	29.751 
23:10	73.7	73.7	73.7	59	58.5	0	1	292	0.00	29.751 
23:15	73.7	73.7	73.7	59	58.5	0	1	292	0.00	29.748 
23:20	73.5	73.5	73.5	59	58.3	0	1	292	0.00	29.748 
23:25	73.5	73.5	73.5	59	58.3	0	1	292	0.00	29.748 
23:30	73.5	73.5	73.5	59	58.3	0	3	22	0.00	29.747 
23:35	73.5	73.5	73.5	59	58.3	0	3	315	0.00	29.747 
23:40	73.5	73.5	73.5	59	58.3	0	1	315	0.00	29.747 
23:45	73.5	73.5	73.5	59	58.3	0	2	315	0.00	29.745 
23:50	73.3	73.3	73.3	59	58.1	0	2	270	0.00	29.745 
23:55	73.3	73.3	73.3	59	58.1	0	3	270	0.00	29.745 

CoCoRaHS
IN-AL-39
A2 Web Hosting
Creative Commons License
GoDaddy
search engine by freefind advanced

loaded 2018-11-12 19:09:12 • last modified 2010-11-18 10:43:29
Privacy PolicyDisclaimer
• wx.awcolley.com is powered by PmWiki v.2002016 •
• all content (unless otherwise noted) © 2018 A W Colley